Archival Weather

Snohomish County (Paine Fld)

Everett, Washington (KPAE)

Report from: Wednesday, November 22, 2023 11:53 AM PST
Current time: Friday, June 21, 2024 4:12 PM PDT

Current weather – Weather history – Daily summaries
Weather forecast

Temperature8.9°C (48.0°F)
Wind chill6.6°C (43.9°F)
Dew point5.0°C (41.0°F)
Winds 8 kts (4.1 m/s, 9.2 mph) North-Northwest (340°)
Visibility10 mi. (16.1 km)
Clouds Scattered clouds 2,000 ft. (610 m)
Altimeter30.39 in.Hg (1029 mB)
Relative humidity77 %
Density altitude-1,139 ft. (-347 m)
Sea-level pressure102.9 kPa (1029 mB, 30.39 in.Hg)
Remarks Automated weather observing station with precipitation discriminator
Flight conditions Visual Meteorological Conditions
Raw dataKPAE 221953Z 34008KT 10SM SCT020 09/05 A3039 RMK AO2 SLP291 T00890050
An error has occurred. This application may no longer respond until reloaded. Reload 🗙